• Join FlightAware (Why Join?)
  • Login
  • US Flag 
09:37PM EDT


 

Airport Tracker/Info


-or-


 

Live Flight TrackerFlight Track Log ✈ ASQ6041 ✈ 07-Jul-2013 ✈ KDEN - KGUC

Flight Track Log - Related Links

Times and Time Zones

All times are in EDT time to prevent confusion due to time zone crossing. See the ASQ6041 flight status page for this flight to view local times or setup timezone preferences in your user account.

Time Position Orientation Groundspeed Altitude Reporting Facility
EDT Latitude Longitude Course Direction KTS MPH feet Rate Location/Type
01:28PM 39.8333 -104.7500 251° West 197 227 6,800  Level Denver TRACON
01:29PM 39.8167 -104.8333 255° West 260 299 8,100 1,680 Climbing Denver TRACON
01:30PM 39.8142 -104.9061 267° West 277 319 9,900 1,800 Climbing Denver Center
01:31PM 39.7245 -105.0768 247° West  Level FlightAware Approximate
01:31PM 39.8133 -105.0236 270° West 301 346 11,400  Level Denver Center
01:32PM 39.6907 -105.1779 247° West  Level FlightAware Approximate
01:32PM 39.8133 -105.1406 270° West 323 372 14,300  Level Denver Center
01:33PM 39.6483 -105.2729 251° West  Level FlightAware Approximate
01:33PM 39.8167 -105.2600 272° West 311 358 16,500  Level Denver Center
01:34PM 39.8172 -105.3739 270° West 313 360 18,100 1,260 Climbing Denver Center
01:35PM 39.8011 -105.5039 261° West 338 389 19,200 960 Climbing Denver Center
01:36PM 39.7869 -105.6333 262° West 361 415 20,200 1,080 Climbing Denver Center
01:37PM 39.7083 -105.7367 225° Southwest 367 422 21,500 1,200 Climbing Denver Center
01:38PM 39.6275 -105.8233 220° Southwest 377 434 22,700 1,140 Climbing Denver Center
01:39PM 39.5467 -105.9086 219° Southwest 376 433 23,900 600 Climbing Denver Center
01:40PM 39.4625 -105.9983 219° Southwest 390 449 24,000  Climbing Denver Center
01:41PM 39.3719 -106.0911 218° Southwest 411 473 24,000  Level Denver Center
01:42PM 39.2597 -106.1781 211° Southwest 411 473 24,000  Level Denver Center
01:43PM 39.1772 -106.2739 222° Southwest 415 478 24,000 -540 Level Denver Center
01:44PM 39.0889 -106.3639 218° Southwest 419 482 22,900 -1,500 Descending Denver Center
01:45PM 38.9861 -106.4694 219° Southwest 421 484 20,900 -1,800 Descending Denver Center
01:46PM 38.9067 -106.5511 219° Southwest 402 463 19,200 -1,440 Descending Denver Center
01:47PM 38.8331 -106.6272 219° Southwest 352 405 18,000 -600 Descending Denver Center
01:48PM 38.7519 -106.6867 210° Southwest 334 384 18,000  Level Denver Center
01:49PM 38.6539 -106.7342 201° Southwest 316 364 18,000 -360 Level Denver Center
01:50PM 38.5878 -106.7678 202° Southwest 270 311 17,300 -540 Descending Denver Center
01:51PM 38.5322 -106.8128 212° Southwest 249 287 16,900 -1,140 Descending Denver Center
01:52PM 38.4878 -106.8728 227° Southwest 237 273 15,000 -1,860 Descending Denver Center
01:54PM 38.5339 -106.9330 314° West  Level Estimated